sensor_id;sensor_type;location;lat;lon;timestamp;pressure;altitude;pressure_sealevel;temperature;humidity
51617;BME280;37697;52.588;13.394;2023-03-03T00:00:50;101844.44;;;-1.16;84.43
51617;BME280;37697;52.588;13.394;2023-03-03T00:06:16;101841.15;;;-1.16;84.68
51617;BME280;37697;52.588;13.394;2023-03-03T00:11:41;101845.66;;;-1.13;84.74
51617;BME280;37697;52.588;13.394;2023-03-03T00:17:01;101848.67;;;-1.11;84.74
51617;BME280;37697;52.588;13.394;2023-03-03T00:22:37;101829.28;;;-1.05;85.04
51617;BME280;37697;52.588;13.394;2023-03-03T00:28:12;101829.80;;;-1.02;85.03
51617;BME280;37697;52.588;13.394;2023-03-03T00:33:44;101834.58;;;-1.01;84.93
51617;BME280;37697;52.588;13.394;2023-03-03T00:39:21;101828.73;;;-1.02;84.94
51617;BME280;37697;52.588;13.394;2023-03-03T00:44:56;101823.16;;;-1.00;84.95
51617;BME280;37697;52.588;13.394;2023-03-03T00:50:29;101820.52;;;-0.96;85.05
51617;BME280;37697;52.588;13.394;2023-03-03T00:55:58;101818.86;;;-0.93;84.88
51617;BME280;37697;52.588;13.394;2023-03-03T01:01:23;101812.22;;;-0.90;84.86
51617;BME280;37697;52.588;13.394;2023-03-03T01:06:49;101796.02;;;-0.91;84.85
51617;BME280;37697;52.588;13.394;2023-03-03T01:12:15;101808.27;;;-0.96;84.75
51617;BME280;37697;52.588;13.394;2023-03-03T01:17:41;101808.08;;;-0.96;85.00
51617;BME280;37697;52.588;13.394;2023-03-03T01:23:08;101801.84;;;-0.95;84.96
51617;BME280;37697;52.588;13.394;2023-03-03T01:28:34;101789.45;;;-0.94;84.99
51617;BME280;37697;52.588;13.394;2023-03-03T01:34:00;101787.80;;;-0.97;85.10
51617;BME280;37697;52.588;13.394;2023-03-03T01:39:26;101772.61;;;-0.96;85.11
51617;BME280;37697;52.588;13.394;2023-03-03T01:45:13;101772.60;;;-1.00;85.03
51617;BME280;37697;52.588;13.394;2023-03-03T01:50:44;101761.80;;;-1.05;85.08
51617;BME280;37697;52.588;13.394;2023-03-03T01:56:10;101762.11;;;-1.03;85.23
51617;BME280;37697;52.588;13.394;2023-03-03T02:01:36;101761.27;;;-1.02;85.37
51617;BME280;37697;52.588;13.394;2023-03-03T02:07:06;101766.90;;;-1.02;85.37
51617;BME280;37697;52.588;13.394;2023-03-03T02:12:35;101775.71;;;-1.03;85.43
51617;BME280;37697;52.588;13.394;2023-03-03T02:18:05;101775.29;;;-1.04;85.32
51617;BME280;37697;52.588;13.394;2023-03-03T02:23:36;101778.64;;;-1.09;85.46
51617;BME280;37697;52.588;13.394;2023-03-03T02:29:03;101783.63;;;-1.13;85.44
51617;BME280;37697;52.588;13.394;2023-03-03T02:34:29;101780.73;;;-1.14;85.46
51617;BME280;37697;52.588;13.394;2023-03-03T02:39:55;101777.58;;;-1.19;85.60
51617;BME280;37697;52.588;13.394;2023-03-03T02:45:13;101782.52;;;-1.21;85.77
51617;BME280;37697;52.588;13.394;2023-03-03T02:50:38;101782.74;;;-1.19;86.04
51617;BME280;37697;52.588;13.394;2023-03-03T02:56:05;101780.45;;;-1.18;85.92
51617;BME280;37697;52.588;13.394;2023-03-03T03:01:32;101776.80;;;-1.19;85.80
51617;BME280;37697;52.588;13.394;2023-03-03T03:06:58;101779.29;;;-1.20;85.93
51617;BME280;37697;52.588;13.394;2023-03-03T03:12:23;101786.54;;;-1.24;85.94
51617;BME280;37697;52.588;13.394;2023-03-03T03:17:49;101798.38;;;-1.28;86.00
51617;BME280;37697;52.588;13.394;2023-03-03T03:23:17;101814.09;;;-1.34;85.84
51617;BME280;37697;52.588;13.394;2023-03-03T03:28:43;101815.63;;;-1.36;86.04
51617;BME280;37697;52.588;13.394;2023-03-03T03:34:09;101814.56;;;-1.43;85.95
51617;BME280;37697;52.588;13.394;2023-03-03T03:39:35;101815.87;;;-1.52;85.96
51617;BME280;37697;52.588;13.394;2023-03-03T03:45:01;101806.46;;;-1.60;86.17
51617;BME280;37697;52.588;13.394;2023-03-03T03:50:26;101799.83;;;-1.70;85.94
51617;BME280;37697;52.588;13.394;2023-03-03T03:55:52;101791.16;;;-1.79;86.26
51617;BME280;37697;52.588;13.394;2023-03-03T04:01:18;101788.08;;;-1.79;86.49
51617;BME280;37697;52.588;13.394;2023-03-03T04:06:44;101780.84;;;-1.80;86.75
51617;BME280;37697;52.588;13.394;2023-03-03T04:12:10;101777.95;;;-1.82;86.90
51617;BME280;37697;52.588;13.394;2023-03-03T04:17:36;101775.33;;;-1.84;87.04
51617;BME280;37697;52.588;13.394;2023-03-03T04:23:02;101769.61;;;-1.88;87.01
51617;BME280;37697;52.588;13.394;2023-03-03T04:28:28;101769.51;;;-1.98;87.08
51617;BME280;37697;52.588;13.394;2023-03-03T04:33:54;101768.30;;;-2.07;86.99
51617;BME280;37697;52.588;13.394;2023-03-03T04:39:19;101766.73;;;-2.07;87.47
51617;BME280;37697;52.588;13.394;2023-03-03T04:44:45;101767.90;;;-2.07;87.71
51617;BME280;37697;52.588;13.394;2023-03-03T04:50:11;101770.36;;;-2.05;87.93
51617;BME280;37697;52.588;13.394;2023-03-03T04:55:38;101778.48;;;-2.09;87.91
51617;BME280;37697;52.588;13.394;2023-03-03T05:01:04;101772.17;;;-2.17;87.95
51617;BME280;37697;52.588;13.394;2023-03-03T05:06:30;101763.96;;;-2.20;88.30
51617;BME280;37697;52.588;13.394;2023-03-03T05:11:56;101755.65;;;-2.17;88.39
51617;BME280;37697;52.588;13.394;2023-03-03T05:17:21;101755.91;;;-2.16;88.57
51617;BME280;37697;52.588;13.394;2023-03-03T05:22:47;101752.77;;;-2.14;88.47
51617;BME280;37697;52.588;13.394;2023-03-03T05:28:06;101764.98;;;-2.12;88.60
51617;BME280;37697;52.588;13.394;2023-03-03T05:33:31;101775.27;;;-2.14;88.62
51617;BME280;37697;52.588;13.394;2023-03-03T05:38:57;101781.86;;;-2.19;88.56
51617;BME280;37697;52.588;13.394;2023-03-03T05:44:23;101784.27;;;-2.24;88.74
51617;BME280;37697;52.588;13.394;2023-03-03T05:49:49;101788.64;;;-2.27;88.92
51617;BME280;37697;52.588;13.394;2023-03-03T05:55:14;101790.75;;;-2.23;89.07
51617;BME280;37697;52.588;13.394;2023-03-03T06:00:40;101789.89;;;-2.19;89.08
51617;BME280;37697;52.588;13.394;2023-03-03T06:06:07;101788.98;;;-2.17;88.93
51617;BME280;37697;52.588;13.394;2023-03-03T06:11:33;101793.06;;;-2.13;89.17
51617;BME280;37697;52.588;13.394;2023-03-03T06:16:58;101796.80;;;-2.11;89.18
51617;BME280;37697;52.588;13.394;2023-03-03T06:22:23;101797.76;;;-2.11;88.86
51617;BME280;37697;52.588;13.394;2023-03-03T06:27:49;101804.23;;;-2.17;88.78
51617;BME280;37697;52.588;13.394;2023-03-03T06:33:15;101804.48;;;-2.13;88.98
51617;BME280;37697;52.588;13.394;2023-03-03T06:38:40;101807.39;;;-2.16;88.96
51617;BME280;37697;52.588;13.394;2023-03-03T06:44:07;101805.34;;;-2.18;89.13
51617;BME280;37697;52.588;13.394;2023-03-03T06:49:33;101820.63;;;-2.21;89.05
51617;BME280;37697;52.588;13.394;2023-03-03T06:55:01;101821.17;;;-2.21;89.11
51617;BME280;37697;52.588;13.394;2023-03-03T07:00:36;101830.52;;;-2.20;89.21
51617;BME280;37697;52.588;13.394;2023-03-03T07:06:07;101832.84;;;-2.21;89.33
51617;BME280;37697;52.588;13.394;2023-03-03T07:11:46;101840.05;;;-2.18;89.59
51617;BME280;37697;52.588;13.394;2023-03-03T07:17:15;101847.86;;;-2.17;89.60
51617;BME280;37697;52.588;13.394;2023-03-03T07:22:42;101852.39;;;-2.15;89.86
51617;BME280;37697;52.588;13.394;2023-03-03T07:28:18;101853.66;;;-2.08;89.85
51617;BME280;37697;52.588;13.394;2023-03-03T07:33:45;101853.77;;;-2.08;89.64
51617;BME280;37697;52.588;13.394;2023-03-03T07:39:24;101857.56;;;-2.07;89.70
51617;BME280;37697;52.588;13.394;2023-03-03T07:44:54;101860.83;;;-2.06;89.64
51617;BME280;37697;52.588;13.394;2023-03-03T07:50:23;101864.30;;;-1.99;89.85
51617;BME280;37697;52.588;13.394;2023-03-03T07:55:49;101867.58;;;-1.91;89.88
51617;BME280;37697;52.588;13.394;2023-03-03T08:01:42;101867.44;;;-1.87;89.87
51617;BME280;37697;52.588;13.394;2023-03-03T08:07:15;101868.00;;;-1.85;90.00
51617;BME280;37697;52.588;13.394;2023-03-03T08:12:42;101876.73;;;-1.85;90.21
51617;BME280;37697;52.588;13.394;2023-03-03T08:18:17;101865.44;;;-1.79;89.91
51617;BME280;37697;52.588;13.394;2023-03-03T08:23:43;101869.02;;;-1.75;89.97
51617;BME280;37697;52.588;13.394;2023-03-03T08:29:09;101872.75;;;-1.70;89.80
51617;BME280;37697;52.588;13.394;2023-03-03T08:34:35;101867.11;;;-1.64;90.09
51617;BME280;37697;52.588;13.394;2023-03-03T08:40:01;101876.08;;;-1.57;90.00
51617;BME280;37697;52.588;13.394;2023-03-03T08:45:27;101873.16;;;-1.48;89.74
51617;BME280;37697;52.588;13.394;2023-03-03T08:50:54;101872.28;;;-1.37;89.69
51617;BME280;37697;52.588;13.394;2023-03-03T08:56:20;101873.83;;;-1.30;89.52
51617;BME280;37697;52.588;13.394;2023-03-03T09:01:46;101875.71;;;-1.23;89.52
51617;BME280;37697;52.588;13.394;2023-03-03T09:07:12;101862.67;;;-1.20;89.60
51617;BME280;37697;52.588;13.394;2023-03-03T09:12:39;101859.24;;;-1.09;89.61
51617;BME280;37697;52.588;13.394;2023-03-03T09:18:14;101864.69;;;-0.97;89.64
51617;BME280;37697;52.588;13.394;2023-03-03T09:23:42;101865.25;;;-0.87;89.78
51617;BME280;37697;52.588;13.394;2023-03-03T09:29:22;101861.31;;;-0.84;89.15
51617;BME280;37697;52.588;13.394;2023-03-03T09:34:48;101860.23;;;-0.81;89.42
51617;BME280;37697;52.588;13.394;2023-03-03T09:40:32;101866.71;;;-0.68;89.49
51617;BME280;37697;52.588;13.394;2023-03-03T09:46:04;101868.26;;;-0.50;89.27
51617;BME280;37697;52.588;13.394;2023-03-03T09:51:43;101865.64;;;-0.44;88.79
51617;BME280;37697;52.588;13.394;2023-03-03T09:57:16;101864.09;;;-0.40;88.65
51617;BME280;37697;52.588;13.394;2023-03-03T10:02:52;101862.64;;;-0.26;88.97
51617;BME280;37697;52.588;13.394;2023-03-03T10:08:41;101875.32;;;-0.17;88.32
51617;BME280;37697;52.588;13.394;2023-03-03T10:14:37;101866.27;;;-0.26;88.34
51617;BME280;37697;52.588;13.394;2023-03-03T10:20:24;101865.08;;;-0.15;88.66
51617;BME280;37697;52.588;13.394;2023-03-03T10:26:06;101858.66;;;-0.00;88.68
51617;BME280;37697;52.588;13.394;2023-03-03T10:32:04;101859.24;;;0.06;88.74
51617;BME280;37697;52.588;13.394;2023-03-03T10:37:52;101864.41;;;0.23;88.33
51617;BME280;37697;52.588;13.394;2023-03-03T10:43:41;101863.27;;;0.31;88.01
51617;BME280;37697;52.588;13.394;2023-03-03T10:49:24;101869.91;;;0.40;88.21
51617;BME280;37697;52.588;13.394;2023-03-03T10:55:03;101872.83;;;0.38;87.89
51617;BME280;37697;52.588;13.394;2023-03-03T11:00:37;101871.20;;;0.37;87.83
51617;BME280;37697;52.588;13.394;2023-03-03T11:06:10;101872.45;;;0.38;87.79
51617;BME280;37697;52.588;13.394;2023-03-03T11:11:38;101871.75;;;0.47;87.85
51617;BME280;37697;52.588;13.394;2023-03-03T11:17:11;101860.95;;;0.58;87.87
51617;BME280;37697;52.588;13.394;2023-03-03T11:22:49;101861.66;;;0.67;87.94
51617;BME280;37697;52.588;13.394;2023-03-03T11:28:29;101859.33;;;0.75;87.80
51617;BME280;37697;52.588;13.394;2023-03-03T11:34:08;101863.55;;;0.84;87.84
51617;BME280;37697;52.588;13.394;2023-03-03T11:39:42;101858.02;;;0.98;87.60
51617;BME280;37697;52.588;13.394;2023-03-03T11:45:16;101854.91;;;1.10;87.58
51617;BME280;37697;52.588;13.394;2023-03-03T11:50:46;101859.16;;;1.13;86.99
51617;BME280;37697;52.588;13.394;2023-03-03T11:56:21;101848.48;;;1.14;87.02
51617;BME280;37697;52.588;13.394;2023-03-03T12:01:53;101843.95;;;1.14;86.68
51617;BME280;37697;52.588;13.394;2023-03-03T12:07:27;101832.97;;;1.16;86.87
51617;BME280;37697;52.588;13.394;2023-03-03T12:13:02;101823.32;;;1.20;86.79
51617;BME280;37697;52.588;13.394;2023-03-03T12:18:39;101813.55;;;1.17;86.70
51617;BME280;37697;52.588;13.394;2023-03-03T12:24:24;101804.27;;;1.20;86.79
51617;BME280;37697;52.588;13.394;2023-03-03T12:30:02;101796.61;;;1.26;86.92
51617;BME280;37697;52.588;13.394;2023-03-03T12:35:38;101794.88;;;1.38;86.77
51617;BME280;37697;52.588;13.394;2023-03-03T12:41:10;101788.98;;;1.51;86.86
51617;BME280;37697;52.588;13.394;2023-03-03T12:46:44;101787.63;;;1.61;86.64
51617;BME280;37697;52.588;13.394;2023-03-03T12:52:19;101785.27;;;1.63;86.26
51617;BME280;37697;52.588;13.394;2023-03-03T12:57:57;101784.66;;;1.61;86.35
51617;BME280;37697;52.588;13.394;2023-03-03T13:03:27;101777.64;;;1.62;86.22
51617;BME280;37697;52.588;13.394;2023-03-03T13:09:10;101772.16;;;1.67;86.09
51617;BME280;37697;52.588;13.394;2023-03-03T13:14:48;101762.62;;;1.71;86.34
51617;BME280;37697;52.588;13.394;2023-03-03T13:20:24;101757.98;;;1.83;86.06
51617;BME280;37697;52.588;13.394;2023-03-03T13:25:59;101751.21;;;1.87;85.98
51617;BME280;37697;52.588;13.394;2023-03-03T13:31:32;101742.36;;;1.93;86.03
51617;BME280;37697;52.588;13.394;2023-03-03T13:37:06;101741.26;;;2.00;86.01
51617;BME280;37697;52.588;13.394;2023-03-03T13:42:40;101740.07;;;2.01;85.87
51617;BME280;37697;52.588;13.394;2023-03-03T13:48:19;101741.55;;;2.12;85.80
51617;BME280;37697;52.588;13.394;2023-03-03T13:53:54;101725.42;;;2.18;85.48
51617;BME280;37697;52.588;13.394;2023-03-03T13:59:31;101724.73;;;2.20;85.22
51617;BME280;37697;52.588;13.394;2023-03-03T14:05:02;101731.95;;;2.28;85.37
51617;BME280;37697;52.588;13.394;2023-03-03T14:10:33;101727.60;;;2.28;85.10
51617;BME280;37697;52.588;13.394;2023-03-03T14:16:06;101719.45;;;2.21;85.03
51617;BME280;37697;52.588;13.394;2023-03-03T14:21:37;101714.05;;;2.26;85.58
51617;BME280;37697;52.588;13.394;2023-03-03T14:27:24;101709.35;;;2.34;85.46
51617;BME280;37697;52.588;13.394;2023-03-03T14:33:01;101696.64;;;2.36;85.32
51617;BME280;37697;52.588;13.394;2023-03-03T14:38:40;101697.23;;;2.32;84.97
51617;BME280;37697;52.588;13.394;2023-03-03T14:44:26;101693.52;;;2.35;85.04
51617;BME280;37697;52.588;13.394;2023-03-03T14:49:53;101680.11;;;2.45;85.26
51617;BME280;37697;52.588;13.394;2023-03-03T14:55:34;101667.42;;;2.57;85.18
51617;BME280;37697;52.588;13.394;2023-03-03T15:01:19;101663.87;;;2.64;84.63
51617;BME280;37697;52.588;13.394;2023-03-03T15:06:48;101664.13;;;2.66;84.40
51617;BME280;37697;52.588;13.394;2023-03-03T15:12:21;101661.33;;;2.70;84.71
51617;BME280;37697;52.588;13.394;2023-03-03T15:17:39;101652.60;;;2.75;84.40
51617;BME280;37697;52.588;13.394;2023-03-03T15:23:29;101650.48;;;2.83;84.35
51617;BME280;37697;52.588;13.394;2023-03-03T15:29:03;101647.33;;;2.81;84.16
51617;BME280;37697;52.588;13.394;2023-03-03T15:34:39;101646.50;;;2.81;84.39
51617;BME280;37697;52.588;13.394;2023-03-03T15:40:18;101640.09;;;2.88;84.46
51617;BME280;37697;52.588;13.394;2023-03-03T15:45:51;101630.66;;;2.89;84.31
51617;BME280;37697;52.588;13.394;2023-03-03T15:51:37;101620.39;;;2.91;84.19
51617;BME280;37697;52.588;13.394;2023-03-03T15:57:14;101616.42;;;2.88;84.15
51617;BME280;37697;52.588;13.394;2023-03-03T16:02:49;101616.35;;;2.85;83.91
51617;BME280;37697;52.588;13.394;2023-03-03T16:08:20;101613.71;;;2.84;83.90
51617;BME280;37697;52.588;13.394;2023-03-03T16:14:03;101610.16;;;2.84;83.91
51617;BME280;37697;52.588;13.394;2023-03-03T16:19:31;101605.69;;;2.83;83.99
51617;BME280;37697;52.588;13.394;2023-03-03T16:25:17;101608.79;;;2.81;83.93
51617;BME280;37697;52.588;13.394;2023-03-03T16:30:51;101604.56;;;2.81;83.83
51617;BME280;37697;52.588;13.394;2023-03-03T16:36:27;101603.75;;;2.76;83.81
51617;BME280;37697;52.588;13.394;2023-03-03T16:42:02;101598.05;;;2.70;83.88
51617;BME280;37697;52.588;13.394;2023-03-03T16:47:40;101595.98;;;2.65;83.83
51617;BME280;37697;52.588;13.394;2023-03-03T16:53:12;101597.27;;;2.56;83.57
51617;BME280;37697;52.588;13.394;2023-03-03T16:58:51;101596.70;;;2.48;83.65
51617;BME280;37697;52.588;13.394;2023-03-03T17:04:33;101600.08;;;2.38;83.67
51617;BME280;37697;52.588;13.394;2023-03-03T17:10:11;101599.88;;;2.31;83.68
51617;BME280;37697;52.588;13.394;2023-03-03T17:15:46;101592.33;;;2.22;83.75
51617;BME280;37697;52.588;13.394;2023-03-03T17:21:22;101590.52;;;2.15;83.87
51617;BME280;37697;52.588;13.394;2023-03-03T17:26:59;101592.69;;;2.03;83.87
51617;BME280;37697;52.588;13.394;2023-03-03T17:32:46;101601.98;;;1.94;83.81
51617;BME280;37697;52.588;13.394;2023-03-03T17:38:21;101605.47;;;1.85;83.80
51617;BME280;37697;52.588;13.394;2023-03-03T17:43:57;101599.70;;;1.81;84.07
51617;BME280;37697;52.588;13.394;2023-03-03T17:49:39;101593.90;;;1.84;84.32
51617;BME280;37697;52.588;13.394;2023-03-03T17:55:31;101593.91;;;1.88;84.64
51617;BME280;37697;52.588;13.394;2023-03-03T18:01:06;101585.55;;;1.92;84.87
51617;BME280;37697;52.588;13.394;2023-03-03T18:06:57;101578.10;;;1.97;85.17
51617;BME280;37697;52.588;13.394;2023-03-03T18:12:37;101581.20;;;2.04;85.35
51617;BME280;37697;52.588;13.394;2023-03-03T18:18:22;101579.94;;;2.11;85.47
51617;BME280;37697;52.588;13.394;2023-03-03T18:23:52;101575.93;;;2.18;85.43
51617;BME280;37697;52.588;13.394;2023-03-03T18:29:37;101571.33;;;2.23;85.48
51617;BME280;37697;52.588;13.394;2023-03-03T18:35:21;101567.13;;;2.27;85.55
51617;BME280;37697;52.588;13.394;2023-03-03T18:40:51;101562.92;;;2.30;85.60
51617;BME280;37697;52.588;13.394;2023-03-03T18:46:47;101560.30;;;2.32;85.60
51617;BME280;37697;52.588;13.394;2023-03-03T18:52:21;101559.17;;;2.34;85.56
51617;BME280;37697;52.588;13.394;2023-03-03T18:58:28;101555.77;;;2.37;85.66
51617;BME280;37697;52.588;13.394;2023-03-03T19:04:08;101547.73;;;2.37;85.58
51617;BME280;37697;52.588;13.394;2023-03-03T19:09:44;101547.20;;;2.37;85.51
51617;BME280;37697;52.588;13.394;2023-03-03T19:15:10;101545.05;;;2.34;85.34
51617;BME280;37697;52.588;13.394;2023-03-03T19:20:59;101536.08;;;2.33;85.50
51617;BME280;37697;52.588;13.394;2023-03-03T19:26:45;101534.36;;;2.33;85.38
51617;BME280;37697;52.588;13.394;2023-03-03T19:32:26;101528.36;;;2.32;85.43
51617;BME280;37697;52.588;13.394;2023-03-03T19:38:03;101535.56;;;2.34;85.56
51617;BME280;37697;52.588;13.394;2023-03-03T19:43:42;101533.84;;;2.34;85.49
51617;BME280;37697;52.588;13.394;2023-03-03T19:49:17;101526.70;;;2.36;85.47
51617;BME280;37697;52.588;13.394;2023-03-03T19:55:16;101526.48;;;2.37;85.55
51617;BME280;37697;52.588;13.394;2023-03-03T20:00:47;101526.04;;;2.39;85.63
51617;BME280;37697;52.588;13.394;2023-03-03T20:06:31;101516.89;;;2.42;85.48
51617;BME280;37697;52.588;13.394;2023-03-03T20:18:23;101513.08;;;2.46;85.48
51617;BME280;37697;52.588;13.394;2023-03-03T20:24:08;101511.90;;;2.49;84.99
51617;BME280;37697;52.588;13.394;2023-03-03T20:29:49;101520.14;;;2.52;84.91
51617;BME280;37697;52.588;13.394;2023-03-03T20:35:29;101514.14;;;2.52;84.75
51617;BME280;37697;52.588;13.394;2023-03-03T20:41:10;101512.71;;;2.51;84.24
51617;BME280;37697;52.588;13.394;2023-03-03T20:46:46;101514.92;;;2.48;83.39
51617;BME280;37697;52.588;13.394;2023-03-03T20:52:28;101514.44;;;2.46;82.96
51617;BME280;37697;52.588;13.394;2023-03-03T20:58:02;101504.01;;;2.47;82.89
51617;BME280;37697;52.588;13.394;2023-03-03T21:03:33;101500.94;;;2.45;82.52
51617;BME280;37697;52.588;13.394;2023-03-03T21:09:01;101499.69;;;2.45;82.26
51617;BME280;37697;52.588;13.394;2023-03-03T21:14:29;101497.77;;;2.45;82.29
51617;BME280;37697;52.588;13.394;2023-03-03T21:19:56;101494.05;;;2.44;82.03
51617;BME280;37697;52.588;13.394;2023-03-03T21:25:47;101488.57;;;2.42;81.85
51617;BME280;37697;52.588;13.394;2023-03-03T21:31:13;101475.60;;;2.41;81.78
51617;BME280;37697;52.588;13.394;2023-03-03T21:36:47;101469.35;;;2.40;81.73
51617;BME280;37697;52.588;13.394;2023-03-03T21:42:15;101473.68;;;2.39;81.64
51617;BME280;37697;52.588;13.394;2023-03-03T21:47:42;101473.07;;;2.38;81.64
51617;BME280;37697;52.588;13.394;2023-03-03T21:53:07;101462.42;;;2.39;81.62
51617;BME280;37697;52.588;13.394;2023-03-03T21:58:33;101454.52;;;2.36;81.39
51617;BME280;37697;52.588;13.394;2023-03-03T22:03:59;101436.23;;;2.34;81.40
51617;BME280;37697;52.588;13.394;2023-03-03T22:09:26;101432.35;;;2.30;81.22
51617;BME280;37697;52.588;13.394;2023-03-03T22:14:51;101431.83;;;2.29;81.30
51617;BME280;37697;52.588;13.394;2023-03-03T22:20:13;101433.90;;;2.27;81.26
51617;BME280;37697;52.588;13.394;2023-03-03T22:25:42;101428.05;;;2.26;81.30
51617;BME280;37697;52.588;13.394;2023-03-03T22:31:08;101421.02;;;2.25;81.30
51617;BME280;37697;52.588;13.394;2023-03-03T22:36:35;101417.27;;;2.23;81.40
51617;BME280;37697;52.588;13.394;2023-03-03T22:42:01;101413.48;;;2.22;81.38
51617;BME280;37697;52.588;13.394;2023-03-03T22:47:26;101396.13;;;2.19;81.18
51617;BME280;37697;52.588;13.394;2023-03-03T22:52:52;101393.18;;;2.15;81.10
51617;BME280;37697;52.588;13.394;2023-03-03T22:58:19;101372.37;;;2.09;81.07
51617;BME280;37697;52.588;13.394;2023-03-03T23:03:46;101353.95;;;2.01;81.20
51617;BME280;37697;52.588;13.394;2023-03-03T23:09:11;101353.01;;;1.94;81.14
51617;BME280;37697;52.588;13.394;2023-03-03T23:14:36;101343.14;;;1.85;81.34
51617;BME280;37697;52.588;13.394;2023-03-03T23:20:02;101333.33;;;1.77;81.52
51617;BME280;37697;52.588;13.394;2023-03-03T23:25:28;101329.96;;;1.65;81.59
51617;BME280;37697;52.588;13.394;2023-03-03T23:30:54;101334.27;;;1.52;81.72
51617;BME280;37697;52.588;13.394;2023-03-03T23:36:19;101321.14;;;1.37;81.92
51617;BME280;37697;52.588;13.394;2023-03-03T23:41:45;101327.58;;;1.25;82.21
51617;BME280;37697;52.588;13.394;2023-03-03T23:47:11;101325.41;;;1.14;82.67
51617;BME280;37697;52.588;13.394;2023-03-03T23:52:37;101327.52;;;1.03;82.76
51617;BME280;37697;52.588;13.394;2023-03-03T23:58:02;101321.63;;;0.93;82.89
